createdAt,value
2019-05-23T00:00:39.996Z,88.69
2019-05-23T00:03:35.293Z,88.56
2019-05-23T00:06:24.352Z,88.51
2019-05-23T00:09:13.080Z,88.38
2019-05-23T00:11:55.763Z,87.79
2019-05-23T00:14:46.555Z,87.50
2019-05-23T00:17:20.672Z,86.59
2019-05-23T00:19:51.302Z,85.70
2019-05-23T00:22:25.553Z,85.65
2019-05-23T00:24:57.391Z,85.85
2019-05-23T00:27:27.627Z,85.71
2019-05-23T00:30:00.251Z,85.43
2019-05-23T00:32:43.023Z,85.80
2019-05-23T00:35:14.803Z,85.10
2019-05-23T00:37:49.087Z,84.89
2019-05-23T00:40:19.777Z,84.87
2019-05-23T00:42:51.765Z,84.29
2019-05-23T00:45:24.303Z,83.81
2019-05-23T00:47:55.122Z,84.23
2019-05-23T00:50:27.880Z,83.64
2019-05-23T00:52:58.307Z,83.22
2019-05-23T00:55:28.966Z,82.97
2019-05-23T00:58:01.642Z,83.13
2019-05-23T01:00:32.523Z,83.12
2019-05-23T01:03:05.434Z,83.24
2019-05-23T01:05:36.352Z,82.66
2019-05-23T01:08:07.338Z,82.39
2019-05-23T01:10:39.604Z,82.48
2019-05-23T01:13:11.292Z,82.40
2019-05-23T01:15:43.358Z,82.49
2019-05-23T01:18:15.884Z,82.36
2019-05-23T01:21:17.350Z,82.17
2019-05-23T01:23:55.769Z,82.21
2019-05-23T01:26:26.533Z,82.01
2019-05-23T01:28:58.188Z,81.87
2019-05-23T01:31:34.235Z,81.24
2019-05-23T01:34:05.607Z,81.17
2019-05-23T01:36:37.072Z,81.02
2019-05-23T01:39:11.705Z,81.54
2019-05-23T01:41:44.079Z,81.28
2019-05-23T01:44:14.412Z,81.18
2019-05-23T01:46:44.916Z,81.43
2019-05-23T01:49:17.815Z,80.67
2019-05-23T01:51:49.362Z,80.77
2019-05-23T01:54:21.898Z,81.23
2019-05-23T01:56:52.592Z,80.92
2019-05-23T01:59:22.973Z,80.94
2019-05-23T02:01:56.384Z,80.80
2019-05-23T02:04:26.691Z,80.79
2019-05-23T02:06:57.419Z,80.68
2019-05-23T02:09:28.352Z,80.46
2019-05-23T02:11:58.744Z,80.64
2019-05-23T02:14:29.142Z,80.52
2019-05-23T02:17:01.194Z,80.59
2019-05-23T02:19:31.990Z,80.86
2019-05-23T02:22:02.363Z,81.25
2019-05-23T02:24:32.708Z,81.02
2019-05-23T02:27:02.972Z,80.82
2019-05-23T02:29:33.818Z,81.21
2019-05-23T02:32:06.449Z,81.00
2019-05-23T02:34:38.434Z,81.28
2019-05-23T02:37:16.968Z,81.20
2019-05-23T02:39:53.288Z,81.23
2019-05-23T02:42:34.631Z,81.34
2019-05-23T02:45:06.734Z,81.32
2019-05-23T02:47:42.155Z,81.45
2019-05-23T02:50:18.532Z,81.78
2019-05-23T02:52:54.306Z,81.58
2019-05-23T02:55:34.369Z,81.51
2019-05-23T02:58:36.525Z,81.39
2019-05-23T03:01:25.269Z,81.67
2019-05-23T03:03:56.865Z,81.90
2019-05-23T03:06:27.340Z,81.25
2019-05-23T03:08:59.204Z,81.52
2019-05-23T03:11:42.536Z,81.56
2019-05-23T03:14:13.388Z,81.61
2019-05-23T03:16:45.536Z,81.76
2019-05-23T03:19:28.832Z,81.73
2019-05-23T03:22:18.975Z,81.84
2019-05-23T03:24:51.354Z,81.63
2019-05-23T03:27:23.659Z,82.13
2019-05-23T03:29:55.792Z,82.11
2019-05-23T03:32:44.110Z,82.47
2019-05-23T03:35:24.479Z,82.27
2019-05-23T03:37:55.029Z,82.41
2019-05-23T03:40:25.396Z,82.31
2019-05-23T03:42:59.762Z,82.37
2019-05-23T03:45:33.001Z,82.01
2019-05-23T03:48:05.790Z,82.12
2019-05-23T03:50:36.747Z,81.89
2019-05-23T03:53:08.080Z,81.91
2019-05-23T03:55:38.617Z,81.63
2019-05-23T03:58:11.373Z,81.62
2019-05-23T04:00:56.833Z,81.44
2019-05-23T04:03:28.019Z,81.12
2019-05-23T04:06:00.050Z,81.45
2019-05-23T04:08:30.310Z,81.00
2019-05-23T04:11:00.567Z,80.50
2019-05-23T04:13:30.807Z,80.24
2019-05-23T04:16:01.646Z,79.68
2019-05-23T04:18:31.807Z,80.25
2019-05-23T04:21:02.008Z,80.16
2019-05-23T04:23:32.651Z,80.41
2019-05-23T04:26:04.539Z,80.08
2019-05-23T04:28:34.649Z,80.02
2019-05-23T04:31:05.259Z,80.04
2019-05-23T04:33:37.927Z,79.83
2019-05-23T04:36:08.628Z,79.98
2019-05-23T04:38:39.077Z,80.11
2019-05-23T04:41:09.506Z,80.24
2019-05-23T04:43:42.354Z,79.92
2019-05-23T04:46:16.280Z,80.08
2019-05-23T04:48:47.183Z,79.77
2019-05-23T04:51:17.591Z,79.78
2019-05-23T04:53:47.884Z,79.94
2019-05-23T04:56:18.144Z,79.38
2019-05-23T04:58:49.081Z,78.83
2019-05-23T05:01:21.699Z,78.72
2019-05-23T05:03:52.294Z,78.44
2019-05-23T05:06:26.029Z,78.24
2019-05-23T05:09:00.709Z,77.74
2019-05-23T05:11:31.188Z,78.18
2019-05-23T05:14:03.056Z,78.13
2019-05-23T05:16:33.652Z,77.87
2019-05-23T05:19:04.603Z,77.78
2019-05-23T05:21:34.945Z,77.96
2019-05-23T05:24:06.328Z,78.09
2019-05-23T05:26:36.863Z,77.71
2019-05-23T05:29:08.035Z,77.95
2019-05-23T05:31:41.069Z,77.66
2019-05-23T05:34:12.131Z,77.93
2019-05-23T05:36:43.730Z,77.49
2019-05-23T05:39:15.788Z,76.92
2019-05-23T05:41:46.426Z,75.96
2019-05-23T05:44:16.725Z,75.48
2019-05-23T05:46:47.032Z,75.17
2019-05-23T05:49:19.014Z,74.85
2019-05-23T05:51:50.057Z,74.67
2019-05-23T05:54:21.030Z,74.26
2019-05-23T05:56:51.526Z,73.94
2019-05-23T05:59:23.293Z,73.07
2019-05-23T06:01:53.712Z,72.34
2019-05-23T06:04:24.137Z,72.52
2019-05-23T06:07:04.699Z,72.00
2019-05-23T06:09:34.936Z,71.82
2019-05-23T06:12:06.024Z,70.85
2019-05-23T06:14:36.865Z,70.62
2019-05-23T06:17:09.175Z,70.80
2019-05-23T06:19:39.461Z,70.36
2019-05-23T06:22:09.862Z,69.19
2019-05-23T06:24:48.055Z,68.72
2019-05-23T06:27:14.155Z,67.91
2019-05-23T06:29:44.466Z,65.86
2019-05-23T06:32:17.125Z,65.46
2019-05-23T06:34:50.695Z,65.39
2019-05-23T06:37:21.140Z,64.28
2019-05-23T06:39:51.393Z,64.96
2019-05-23T06:42:22.634Z,63.27
2019-05-23T06:44:54.202Z,63.82
2019-05-23T06:47:25.352Z,63.37
2019-05-23T06:49:55.535Z,62.48
2019-05-23T06:52:25.713Z,62.28
2019-05-23T06:54:59.585Z,61.68
2019-05-23T06:57:28.993Z,61.77
2019-05-23T06:59:59.505Z,61.13
2019-05-23T07:02:32.082Z,60.05
2019-05-23T07:05:01.619Z,60.95
2019-05-23T07:07:33.917Z,60.27
2019-05-23T07:10:05.579Z,60.04
2019-05-23T07:12:36.490Z,59.53
2019-05-23T07:15:07.223Z,57.98
2019-05-23T07:17:38.165Z,58.06
2019-05-23T07:20:10.057Z,57.22
2019-05-23T07:22:40.769Z,57.14
2019-05-23T07:25:11.762Z,57.72
2019-05-23T07:27:42.237Z,56.37
2019-05-23T07:30:18.651Z,56.95
2019-05-23T07:32:52.803Z,56.03
2019-05-23T07:35:23.780Z,54.91
2019-05-23T07:37:55.144Z,55.72
2019-05-23T07:40:27.353Z,55.43
2019-05-23T07:42:57.616Z,55.05
2019-05-23T07:45:39.633Z,54.28
2019-05-23T07:48:08.225Z,53.30
2019-05-23T07:50:38.895Z,53.08
2019-05-23T07:53:10.655Z,51.42
2019-05-23T07:55:43.246Z,51.66
2019-05-23T07:58:14.434Z,51.71
2019-05-23T08:00:53.234Z,50.58
2019-05-23T08:03:26.288Z,50.15
2019-05-23T08:05:56.671Z,49.37
2019-05-23T08:08:27.193Z,48.47
2019-05-23T08:10:57.476Z,48.03
2019-05-23T08:13:28.302Z,47.21
2019-05-23T08:15:58.673Z,45.91
2019-05-23T08:18:29.576Z,46.03
2019-05-23T08:20:59.728Z,45.67
2019-05-23T08:23:30.247Z,45.03
2019-05-23T08:26:00.418Z,44.34
2019-05-23T08:28:30.778Z,44.25
2019-05-23T08:31:01.004Z,45.55
2019-05-23T08:33:31.484Z,45.58
2019-05-23T08:36:02.261Z,45.10
2019-05-23T08:38:32.707Z,45.23
2019-05-23T08:41:03.375Z,45.33
2019-05-23T08:43:33.662Z,44.75
2019-05-23T08:46:03.978Z,44.14
2019-05-23T08:48:34.109Z,44.52
2019-05-23T08:51:05.749Z,46.01
2019-05-23T08:53:35.963Z,44.43
2019-05-23T08:56:17.914Z,44.28
2019-05-23T08:58:39.432Z,45.71
2019-05-23T09:01:10.991Z,45.10
2019-05-23T09:03:41.169Z,43.65
2019-05-23T09:06:11.369Z,45.30
2019-05-23T09:08:42.377Z,46.79
2019-05-23T09:11:13.387Z,45.82
2019-05-23T09:13:43.945Z,44.45
2019-05-23T09:16:14.834Z,45.71
2019-05-23T09:18:45.106Z,46.01
2019-05-23T09:21:15.461Z,46.12
2019-05-23T09:23:46.624Z,46.51
2019-05-23T09:26:17.914Z,44.62
2019-05-23T09:28:48.209Z,43.78
2019-05-23T09:31:18.730Z,43.03
2019-05-23T09:33:48.939Z,43.50
2019-05-23T09:36:19.289Z,43.78
2019-05-23T09:38:49.512Z,44.95
2019-05-23T09:41:19.819Z,44.46
2019-05-23T09:43:50.138Z,43.42
2019-05-23T09:46:22.032Z,44.14
2019-05-23T09:48:52.776Z,43.26
2019-05-23T09:51:23.399Z,42.33
2019-05-23T09:53:54.576Z,41.79
2019-05-23T09:56:24.915Z,42.53
2019-05-23T09:58:55.105Z,42.37
2019-05-23T10:01:25.379Z,42.98
2019-05-23T10:03:55.822Z,40.83
2019-05-23T10:06:27.579Z,41.24
2019-05-23T10:08:57.831Z,39.70
2019-05-23T10:11:29.435Z,39.06
2019-05-23T10:14:00.499Z,38.80
2019-05-23T10:16:30.878Z,38.00
2019-05-23T10:19:01.231Z,39.01
2019-05-23T10:21:31.862Z,38.68
2019-05-23T10:24:02.069Z,39.49
2019-05-23T10:26:32.273Z,39.67
2019-05-23T10:29:02.451Z,39.66
2019-05-23T10:31:33.214Z,39.67
2019-05-23T10:34:03.400Z,40.32
2019-05-23T10:36:33.574Z,39.65
2019-05-23T10:39:05.626Z,39.95
2019-05-23T10:41:36.088Z,41.72
2019-05-23T10:44:06.443Z,39.90
2019-05-23T10:46:36.701Z,41.57
2019-05-23T10:49:06.972Z,40.54
2019-05-23T10:51:37.195Z,41.57
2019-05-23T10:54:07.522Z,40.91
2019-05-23T10:56:37.868Z,40.82
2019-05-23T10:59:08.184Z,41.46
2019-05-23T11:01:39.413Z,41.34
2019-05-23T11:04:10.093Z,40.86
2019-05-23T11:06:40.635Z,42.80
2019-05-23T11:09:11.569Z,42.88
2019-05-23T11:11:42.522Z,43.29
2019-05-23T11:14:15.081Z,43.76
2019-05-23T11:16:45.240Z,43.14
2019-05-23T11:19:15.607Z,43.70
2019-05-23T11:21:46.071Z,42.25
2019-05-23T11:24:18.159Z,42.71
2019-05-23T11:26:48.663Z,42.76
2019-05-23T11:29:18.856Z,43.54
2019-05-23T11:31:51.054Z,41.77
2019-05-23T11:34:22.099Z,44.16
2019-05-23T11:36:52.516Z,43.01
2019-05-23T11:39:23.354Z,41.74
2019-05-23T11:41:53.613Z,42.97
2019-05-23T11:44:23.818Z,42.35
2019-05-23T11:46:54.039Z,41.81
2019-05-23T11:49:24.244Z,41.36
2019-05-23T11:51:55.300Z,38.28
2019-05-23T11:54:25.848Z,39.82
2019-05-23T11:56:56.855Z,38.71
2019-05-23T11:59:27.129Z,39.93
2019-05-23T12:02:16.218Z,39.16
2019-05-23T12:04:46.389Z,38.46
2019-05-23T12:07:20.571Z,39.75
2019-05-23T12:09:50.804Z,39.50
2019-05-23T12:12:20.999Z,40.09
2019-05-23T12:14:51.212Z,39.07
2019-05-23T12:17:22.954Z,39.17
2019-05-23T12:19:53.263Z,39.40
2019-05-23T12:22:24.423Z,37.43
2019-05-23T12:24:54.825Z,38.21
2019-05-23T12:27:25.389Z,38.08
2019-05-23T12:29:55.776Z,39.57
2019-05-23T12:32:26.033Z,36.48
2019-05-23T12:35:09.824Z,36.71
2019-05-23T12:37:28.373Z,39.20
2019-05-23T12:39:59.423Z,38.87
2019-05-23T12:42:29.663Z,37.52
2019-05-23T12:45:00.072Z,37.74
2019-05-23T12:47:41.054Z,37.37
2019-05-23T12:50:14.687Z,36.23
2019-05-23T12:52:44.888Z,36.83
2019-05-23T12:55:15.182Z,36.81
2019-05-23T12:57:45.463Z,38.37
2019-05-23T13:00:25.948Z,36.58
2019-05-23T13:03:01.209Z,36.11
2019-05-23T13:05:31.860Z,36.52
2019-05-23T13:08:06.377Z,35.79
2019-05-23T13:10:37.006Z,36.28
2019-05-23T13:13:07.427Z,38.14
2019-05-23T13:15:37.653Z,36.73
2019-05-23T13:18:07.917Z,37.86
2019-05-23T13:20:44.191Z,36.24
2019-05-23T13:23:20.682Z,36.93
2019-05-23T13:25:52.830Z,37.02
2019-05-23T13:28:23.101Z,38.01
2019-05-23T13:30:54.216Z,38.40
2019-05-23T13:33:24.454Z,36.98
2019-05-23T13:35:54.820Z,36.51
2019-05-23T13:38:25.234Z,37.84
2019-05-23T13:40:55.555Z,38.13
2019-05-23T13:43:26.449Z,37.51
2019-05-23T13:45:56.751Z,37.92
2019-05-23T13:48:29.283Z,37.47
2019-05-23T13:51:04.464Z,36.94
2019-05-23T13:53:36.429Z,39.46
2019-05-23T13:56:09.494Z,36.92
2019-05-23T13:58:41.340Z,38.44
2019-05-23T14:01:12.342Z,39.22
2019-05-23T14:03:47.939Z,40.45
2019-05-23T14:06:19.362Z,40.90
2019-05-23T14:08:49.534Z,39.74
2019-05-23T14:11:19.997Z,41.90
2019-05-23T14:13:59.188Z,40.78
2019-05-23T14:16:23.808Z,43.11
2019-05-23T14:18:54.010Z,43.46
2019-05-23T14:21:24.182Z,40.13
2019-05-23T14:23:54.431Z,39.31
2019-05-23T14:26:26.992Z,40.18
2019-05-23T14:28:58.567Z,38.20
2019-05-23T14:31:33.169Z,40.08
2019-05-23T14:34:05.505Z,37.32
2019-05-23T14:36:43.587Z,35.14
2019-05-23T14:39:32.705Z,33.84
2019-05-23T14:42:13.021Z,35.24
2019-05-23T14:44:43.197Z,34.94
2019-05-23T14:47:31.216Z,32.09
2019-05-23T14:50:23.951Z,32.49
2019-05-23T14:52:54.617Z,35.06
2019-05-23T14:55:25.429Z,34.14
2019-05-23T14:58:00.804Z,34.48
2019-05-23T15:00:37.412Z,37.42
2019-05-23T15:03:10.914Z,35.41
2019-05-23T15:05:41.608Z,34.96
2019-05-23T15:08:19.399Z,35.33
2019-05-23T15:10:51.402Z,35.48
2019-05-23T15:13:21.801Z,34.81
2019-05-23T15:15:53.679Z,35.80
2019-05-23T15:18:25.513Z,36.34
2019-05-23T15:20:55.736Z,33.77
2019-05-23T15:23:26.095Z,34.63
2019-05-23T15:25:56.646Z,36.72
2019-05-23T15:28:26.804Z,38.93
2019-05-23T15:31:00.248Z,39.19
2019-05-23T15:33:32.258Z,39.37
2019-05-23T15:36:02.613Z,40.15
2019-05-23T15:38:34.110Z,39.17
2019-05-23T15:41:04.508Z,39.57
2019-05-23T15:43:34.797Z,39.34
2019-05-23T15:46:08.423Z,39.93
2019-05-23T15:48:38.694Z,37.29
2019-05-23T15:51:10.156Z,40.83
2019-05-23T15:54:04.713Z,37.71
2019-05-23T15:56:50.263Z,39.28
2019-05-23T15:59:24.766Z,39.75
2019-05-23T16:02:02.055Z,42.18
2019-05-23T16:04:35.246Z,43.14
2019-05-23T16:07:06.651Z,42.88
2019-05-23T16:09:36.940Z,42.93
2019-05-23T16:12:08.252Z,43.05
2019-05-23T16:14:38.608Z,44.40
2019-05-23T16:17:11.532Z,44.19
2019-05-23T16:19:41.941Z,43.95
2019-05-23T16:22:12.583Z,45.08
2019-05-23T16:24:45.372Z,46.33
2019-05-23T16:27:15.652Z,45.56
2019-05-23T16:29:45.927Z,45.37
2019-05-23T16:32:16.331Z,45.94
2019-05-23T16:34:46.595Z,46.26
2019-05-23T16:37:16.819Z,46.70
2019-05-23T16:39:49.446Z,46.60
2019-05-23T16:42:18.983Z,44.64
2019-05-23T16:44:49.228Z,46.84
2019-05-23T16:47:20.495Z,47.99
2019-05-23T16:49:50.756Z,46.89
2019-05-23T16:52:20.992Z,48.30
2019-05-23T16:54:53.089Z,48.50
2019-05-23T16:57:40.208Z,47.82
2019-05-23T17:00:37.122Z,49.35
2019-05-23T17:03:18.806Z,49.01
2019-05-23T17:06:01.929Z,48.27
2019-05-23T17:08:44.882Z,49.29
2019-05-23T17:11:39.981Z,48.33
2019-05-23T17:14:36.204Z,48.24
2019-05-23T17:17:57.471Z,48.62
2019-05-23T17:20:37.315Z,48.44
2019-05-23T17:23:15.441Z,48.92
2019-05-23T17:26:08.263Z,47.80
2019-05-23T17:28:41.280Z,50.63
2019-05-23T17:31:13.827Z,49.77
2019-05-23T17:33:45.488Z,48.31
2019-05-23T17:36:15.776Z,48.87
2019-05-23T17:38:46.214Z,47.88
2019-05-23T17:41:16.533Z,49.54
2019-05-23T17:43:46.734Z,49.36
2019-05-23T17:46:16.918Z,48.60
2019-05-23T17:48:47.314Z,48.70
2019-05-23T17:51:17.714Z,50.03
2019-05-23T17:53:50.674Z,49.71
2019-05-23T17:56:20.879Z,49.39
2019-05-23T17:58:52.966Z,49.73
2019-05-23T18:01:25.246Z,51.25
2019-05-23T18:03:55.713Z,52.41
2019-05-23T18:06:26.423Z,52.29
2019-05-23T18:08:58.433Z,51.42
2019-05-23T18:11:28.823Z,53.04
2019-05-23T18:13:59.628Z,52.86
2019-05-23T18:16:31.679Z,53.85
2019-05-23T18:19:02.535Z,53.65
2019-05-23T18:21:33.445Z,55.32
2019-05-23T18:24:05.183Z,55.87
2019-05-23T18:26:35.559Z,55.04
2019-05-23T18:29:06.209Z,55.99
2019-05-23T18:31:38.976Z,56.21
2019-05-23T18:34:10.766Z,57.12
2019-05-23T18:36:41.303Z,57.48
2019-05-23T18:39:14.235Z,58.34
2019-05-23T18:41:45.714Z,58.83
2019-05-23T18:44:16.736Z,59.95
2019-05-23T18:46:49.537Z,59.75
2019-05-23T18:49:25.839Z,60.01
2019-05-23T18:51:56.129Z,59.98
2019-05-23T18:54:32.175Z,60.33
2019-05-23T18:57:02.444Z,61.13
2019-05-23T18:59:33.108Z,61.15
2019-05-23T19:02:06.670Z,61.01
2019-05-23T19:04:37.074Z,62.43
2019-05-23T19:07:09.378Z,61.92
2019-05-23T19:09:48.399Z,61.96
2019-05-23T19:12:25.567Z,60.91
2019-05-23T19:15:02.686Z,62.60
2019-05-23T19:17:41.024Z,62.11
2019-05-23T19:20:23.183Z,63.93
2019-05-23T19:23:12.614Z,65.12
2019-05-23T19:25:49.879Z,64.43
2019-05-23T19:28:46.439Z,65.32
2019-05-23T19:31:22.323Z,65.78
2019-05-23T19:33:55.645Z,66.57
2019-05-23T19:36:33.765Z,66.53
2019-05-23T19:39:08.930Z,67.58
2019-05-23T19:41:46.716Z,67.97
2019-05-23T19:44:20.113Z,67.99
2019-05-23T19:47:01.777Z,68.30
2019-05-23T19:49:34.646Z,68.18
2019-05-23T19:52:05.996Z,69.03
2019-05-23T19:54:38.264Z,69.91
2019-05-23T19:57:09.826Z,69.92
2019-05-23T19:59:40.768Z,69.76
2019-05-23T20:02:40.708Z,70.75
2019-05-23T20:05:21.329Z,70.70
2019-05-23T20:08:00.922Z,70.42
2019-05-23T20:10:32.502Z,71.07
2019-05-23T20:13:06.375Z,71.17
2019-05-23T20:15:37.263Z,71.76
2019-05-23T20:18:08.603Z,72.46
2019-05-23T20:20:42.386Z,72.26
2019-05-23T20:23:19.144Z,73.02
2019-05-23T20:25:54.566Z,74.13
2019-05-23T20:28:27.898Z,73.87
2019-05-23T20:31:00.661Z,73.48
2019-05-23T20:33:31.060Z,74.03
2019-05-23T20:36:03.404Z,73.67
2019-05-23T20:38:34.110Z,75.12
2019-05-23T20:41:05.034Z,75.42
2019-05-23T20:43:39.616Z,75.10
2019-05-23T20:49:09.093Z,75.66
2019-05-23T20:51:42.407Z,75.89
2019-05-23T20:54:15.478Z,75.89
2019-05-23T20:56:45.702Z,78.42
2019-05-23T20:59:16.293Z,80.70
2019-05-23T21:01:46.519Z,81.74
2019-05-23T21:04:19.669Z,81.44
2019-05-23T21:06:49.854Z,82.07
2019-05-23T21:09:21.192Z,82.14
2019-05-23T21:11:51.371Z,81.27
2019-05-23T21:14:21.542Z,81.06
2019-05-23T21:16:51.723Z,82.74
2019-05-23T21:19:21.924Z,80.31
2019-05-23T21:21:52.223Z,80.36
2019-05-23T21:24:22.418Z,80.84
2019-05-23T21:26:55.215Z,81.91
2019-05-23T21:29:25.527Z,82.36
2019-05-23T21:31:55.722Z,80.51
2019-05-23T21:34:25.909Z,80.40
2019-05-23T21:36:56.098Z,81.00
2019-05-23T21:39:26.364Z,80.76
2019-05-23T21:41:56.563Z,80.32
2019-05-23T21:44:26.760Z,81.59
2019-05-23T21:46:56.935Z,82.87
2019-05-23T21:49:27.359Z,83.53
2019-05-23T21:51:57.784Z,82.35
2019-05-23T21:54:27.987Z,82.52
2019-05-23T21:56:58.142Z,83.52
2019-05-23T21:59:28.289Z,83.06
2019-05-23T22:02:10.121Z,83.53
2019-05-23T22:04:48.412Z,82.81
2019-05-23T22:07:18.610Z,83.64
2019-05-23T22:09:48.832Z,82.24
2019-05-23T22:12:19.654Z,82.31
2019-05-23T22:14:50.081Z,82.16
2019-05-23T22:17:22.427Z,82.14
2019-05-23T22:19:52.766Z,84.56
2019-05-23T22:22:22.988Z,83.16
2019-05-23T22:24:53.242Z,83.95
2019-05-23T22:27:23.485Z,83.08
2019-05-23T22:29:54.692Z,83.62
2019-05-23T22:32:26.598Z,82.28
2019-05-23T22:35:01.314Z,82.64
2019-05-23T22:37:31.904Z,80.72
2019-05-23T22:40:02.057Z,81.17
2019-05-23T22:42:33.819Z,82.88
2019-05-23T22:45:05.812Z,82.73
2019-05-23T22:47:35.968Z,82.34
2019-05-23T22:50:06.534Z,81.41
2019-05-23T22:52:36.687Z,82.93
2019-05-23T22:55:07.009Z,84.68
2019-05-23T22:57:37.190Z,83.38
2019-05-23T23:00:07.896Z,85.82
2019-05-23T23:02:38.122Z,84.73
2019-05-23T23:05:08.319Z,84.25
2019-05-23T23:07:38.573Z,84.90
2019-05-23T23:10:08.975Z,84.92
2019-05-23T23:12:39.116Z,86.18
2019-05-23T23:15:09.465Z,88.44
2019-05-23T23:17:39.646Z,87.84
2019-05-23T23:20:10.189Z,85.55
2019-05-23T23:22:40.343Z,85.92
2019-05-23T23:25:10.738Z,84.12
2019-05-23T23:27:40.914Z,82.84
2019-05-23T23:30:12.983Z,82.62
2019-05-23T23:32:43.140Z,83.02
2019-05-23T23:35:13.328Z,84.70
2019-05-23T23:37:43.522Z,87.33
2019-05-23T23:40:14.244Z,87.71
2019-05-23T23:42:44.483Z,87.89
2019-05-23T23:45:32.904Z,85.71
2019-05-23T23:48:21.246Z,85.78
2019-05-23T23:51:09.218Z,83.94
2019-05-23T23:53:56.993Z,83.46
2019-05-23T23:56:45.313Z,83.60
2019-05-23T23:59:15.221Z,84.88
